Time;durP1;ratioP1;P1;durP2;ratioP2;P2;SDS_P1;SDS_P2;PMS_P1;PMS_P2;Temp;Humidity;BMP_temperature;BMP_pressure;BME280_temperature;BME280_humidity;BME280_pressure;Samples;Min_cycle;Max_cycle;Signal;HPM_P1;HPM_P2
2022/11/16 00:01:47;;;;;;;19.40;13.77;;;11.60;81.00;;;;;;5021238;28;20464;-69
2022/11/16 00:04:16;;;;;;;17.33;11.47;;;11.60;81.10;;;;;;5023070;28;20464;-70
2022/11/16 00:06:45;;;;;;;17.63;12.97;;;11.60;81.30;;;;;;5018320;28;20460;-70
2022/11/16 00:09:22;;;;;;;13.93;10.07;;;11.50;81.20;;;;;;5018591;28;20460;-69
2022/11/16 00:11:53;;;;;;;15.90;10.97;;;11.50;81.30;;;;;;5021637;28;21234;-69
2022/11/16 00:14:25;;;;;;;14.20;10.07;;;11.50;81.40;;;;;;5020362;28;20870;-71
2022/11/16 00:16:54;;;;;;;15.87;10.17;;;11.60;81.50;;;;;;5026062;28;20492;-70
2022/11/16 00:19:23;;;;;;;14.47;10.60;;;11.60;81.60;;;;;;5032078;28;20932;-70
2022/11/16 00:21:52;;;;;;;13.57;10.43;;;11.60;81.60;;;;;;5029967;28;20459;-69
2022/11/16 00:24:21;;;;;;;12.00;8.87;;;11.60;81.60;;;;;;5028582;28;20470;-70
2022/11/16 00:26:50;;;;;;;16.47;11.27;;;11.70;81.60;;;;;;5026807;28;20526;-72
2022/11/16 00:29:21;;;;;;;14.17;10.50;;;11.70;81.60;;;;;;5026442;28;20464;-71
2022/11/16 00:31:50;;;;;;;16.47;10.60;;;11.70;81.60;;;;;;5032661;28;20456;-71
2022/11/16 00:34:21;;;;;;;14.53;10.27;;;11.70;81.60;;;;;;5032035;28;21042;-70
2022/11/16 00:36:50;;;;;;;14.53;11.27;;;11.70;81.60;;;;;;5035450;28;20507;-69
2022/11/16 00:39:19;;;;;;;16.10;10.27;;;11.70;81.60;;;;;;5038145;28;20448;-70
2022/11/16 00:41:48;;;;;;;16.87;11.90;;;11.70;81.60;;;;;;5027631;28;20475;-71
2022/11/16 00:44:17;;;;;;;16.20;12.63;;;11.70;81.60;;;;;;5026296;28;20510;-71
2022/11/16 00:46:45;;;;;;;18.37;13.90;;;11.60;81.60;;;;;;5032205;28;20522;-69
2022/11/16 00:49:14;;;;;;;20.70;14.83;;;11.60;81.70;;;;;;5020197;28;20452;-71
2022/11/16 00:51:43;;;;;;;20.50;13.87;;;11.50;81.70;;;;;;5030744;28;20456;-70
2022/11/16 00:54:11;;;;;;;19.57;13.87;;;11.50;81.90;;;;;;5030868;28;20459;-70
2022/11/16 00:56:40;;;;;;;23.73;14.50;;;11.40;82.10;;;;;;5030849;28;21001;-69
2022/11/16 00:59:08;;;;;;;22.90;16.60;;;11.40;82.20;;;;;;5031765;28;20483;-69
2022/11/16 01:01:37;;;;;;;20.13;14.10;;;11.30;82.30;;;;;;5029297;28;20472;-69
2022/11/16 01:04:06;;;;;;;21.93;16.13;;;11.30;82.50;;;;;;5028837;28;20487;-71
2022/11/16 01:06:36;;;;;;;17.27;13.53;;;11.40;82.70;;;;;;5025427;28;20527;-71
2022/11/16 01:09:05;;;;;;;19.57;14.17;;;11.40;82.70;;;;;;5034656;28;21033;-70
2022/11/16 01:14:18;;;;;;;18.90;13.00;;;11.40;82.80;;;;;;5023706;28;20462;-70
2022/11/16 01:16:49;;;;;;;21.57;14.40;;;11.40;82.90;;;;;;5018307;28;20487;-71
2022/11/16 01:19:18;;;;;;;22.60;14.07;;;11.40;83.00;;;;;;5030723;28;20944;-69
2022/11/16 01:21:45;;;;;;;20.60;13.87;;;11.40;83.00;;;;;;5035197;28;20476;-71
2022/11/16 01:24:15;;;;;;;16.97;12.30;;;11.40;82.90;;;;;;5031182;28;20451;-70
2022/11/16 01:26:43;;;;;;;24.40;14.87;;;11.40;83.00;;;;;;5026016;28;20786;-71
2022/11/16 01:29:11;;;;;;;26.77;15.97;;;11.40;83.10;;;;;;5030366;28;20454;-70
2022/11/16 01:31:45;;;;;;;23.90;15.20;;;11.40;83.10;;;;;;5018020;28;21114;-71
2022/11/16 01:34:14;;;;;;;22.90;13.13;;;11.40;83.20;;;;;;5021502;28;20543;-69
2022/11/16 01:36:42;;;;;;;21.03;17.10;;;11.40;83.30;;;;;;5021012;28;20570;-69
2022/11/16 01:39:11;;;;;;;23.70;14.80;;;11.50;83.30;;;;;;5022378;28;20464;-69
2022/11/16 01:41:46;;;;;;;28.70;15.70;;;11.50;83.30;;;;;;5024715;28;20461;-69
2022/11/16 01:44:53;;;;;;;19.70;15.03;;;11.50;83.30;;;;;;5026502;28;20467;-71
2022/11/16 01:47:21;;;;;;;19.00;13.80;;;11.50;83.30;;;;;;5019198;28;20488;-69
2022/11/16 01:49:52;;;;;;;18.63;13.00;;;11.50;83.40;;;;;;5021106;28;20601;-71
2022/11/16 01:52:29;;;;;;;20.30;13.70;;;11.50;83.50;;;;;;5024263;28;20463;-71
2022/11/16 01:54:57;;;;;;;17.97;13.90;;;11.50;83.50;;;;;;5022417;28;20472;-71
2022/11/16 02:00:29;;;;;;;21.10;13.27;;;11.50;83.50;;;;;;5015540;28;20461;-70
2022/11/16 02:03:12;;;;;;;20.40;12.10;;;11.50;83.40;;;;;;5024234;28;20511;-70
2022/11/16 02:06:00;;;;;;;19.33;13.97;;;11.50;83.50;;;;;;5041114;28;20473;-71
2022/11/16 02:11:50;;;;;;;15.93;12.90;;;11.50;83.50;;;;;;5017585;28;20483;-71
2022/11/16 02:14:34;;;;;;;16.67;11.83;;;11.50;83.60;;;;;;5024343;28;20491;-70
2022/11/16 02:17:09;;;;;;;19.93;12.50;;;11.50;83.70;;;;;;5021110;28;20614;-69
2022/11/16 02:20:29;;;;;;;18.20;13.70;;;11.50;83.70;;;;;;5026776;28;20460;-71
2022/11/16 02:23:23;;;;;;;20.10;13.77;;;11.50;83.70;;;;;;5007156;28;20533;-71
2022/11/16 02:26:00;;;;;;;18.67;13.70;;;11.50;83.70;;;;;;4983475;28;20463;-71
2022/11/16 02:28:36;;;;;;;22.37;13.83;;;11.50;83.70;;;;;;5024949;28;20542;-68
2022/11/16 02:31:11;;;;;;;18.97;14.27;;;11.60;83.70;;;;;;5023027;28;20472;-70
2022/11/16 02:33:42;;;;;;;17.83;12.43;;;11.60;83.70;;;;;;5025177;28;20490;-71
2022/11/16 02:36:14;;;;;;;20.30;13.20;;;11.60;83.70;;;;;;5029724;28;20467;-71
2022/11/16 02:38:47;;;;;;;17.27;13.13;;;11.50;83.80;;;;;;5047106;28;20553;-71
2022/11/16 02:41:20;;;;;;;20.17;14.53;;;11.60;83.80;;;;;;5024836;28;20493;-69
2022/11/16 02:43:55;;;;;;;20.70;14.80;;;11.50;83.80;;;;;;5022314;28;22695;-68
2022/11/16 02:46:29;;;;;;;20.57;15.30;;;11.50;83.80;;;;;;5024884;28;20487;-70
2022/11/16 02:49:01;;;;;;;20.27;15.30;;;11.50;83.70;;;;;;5026097;28;20902;-70
2022/11/16 02:51:32;;;;;;;22.60;15.03;;;11.40;83.80;;;;;;5031949;28;20501;-71
2022/11/16 02:54:04;;;;;;;26.10;16.10;;;11.40;84.00;;;;;;5030677;28;20510;-71
2022/11/16 02:56:42;;;;;;;23.80;17.90;;;11.40;83.90;;;;;;5026183;28;20470;-70
2022/11/16 02:59:11;;;;;;;23.23;16.70;;;11.40;83.90;;;;;;5024154;28;20987;-69
2022/11/16 03:01:53;;;;;;;24.60;16.60;;;11.30;84.00;;;;;;5022220;28;20504;-70
2022/11/16 03:04:28;;;;;;;24.27;16.50;;;11.30;84.10;;;;;;5026263;28;20539;-69
2022/11/16 03:06:57;;;;;;;22.80;16.13;;;11.30;84.30;;;;;;5015592;28;20490;-69
2022/11/16 03:09:30;;;;;;;24.37;15.50;;;11.30;84.40;;;;;;5017310;28;20496;-69
2022/11/16 03:12:01;;;;;;;23.77;15.50;;;11.30;84.50;;;;;;5026165;28;20463;-70
2022/11/16 03:14:36;;;;;;;24.47;17.00;;;11.30;84.50;;;;;;5024910;28;20509;-71
2022/11/16 03:17:11;;;;;;;24.97;18.43;;;11.30;84.60;;;;;;5027716;28;20472;-69
2022/11/16 03:19:44;;;;;;;23.87;18.10;;;11.30;84.60;;;;;;5025735;28;20972;-68
2022/11/16 03:22:16;;;;;;;21.40;15.33;;;11.30;84.70;;;;;;5022391;28;20460;-68
2022/11/16 03:24:44;;;;;;;25.80;16.70;;;11.30;84.70;;;;;;5022283;28;20974;-70
2022/11/16 03:27:19;;;;;;;24.40;17.50;;;11.30;84.80;;;;;;5025819;28;20535;-72
2022/11/16 03:29:55;;;;;;;22.27;15.90;;;11.30;84.70;;;;;;5024364;28;21073;-71
2022/11/16 03:32:29;;;;;;;25.87;16.73;;;11.20;84.80;;;;;;5016510;28;20542;-69
2022/11/16 03:35:02;;;;;;;25.37;16.90;;;11.20;84.90;;;;;;5023851;28;20517;-71
2022/11/16 03:37:31;;;;;;;22.97;17.03;;;11.20;85.00;;;;;;5029112;28;20483;-69
2022/11/16 03:40:02;;;;;;;21.00;16.53;;;11.20;85.00;;;;;;5035663;28;20491;-69
2022/11/16 03:42:32;;;;;;;25.77;17.80;;;11.10;85.10;;;;;;5024264;28;20845;-71
2022/11/16 03:45:01;;;;;;;23.20;15.93;;;11.10;85.30;;;;;;5022850;28;20836;-69
2022/11/16 03:47:31;;;;;;;22.30;16.80;;;11.10;85.30;;;;;;5029546;28;20471;-69
2022/11/16 03:49:59;;;;;;;21.93;16.53;;;11.20;85.40;;;;;;5042204;28;21000;-69
2022/11/16 03:52:28;;;;;;;25.10;16.20;;;11.20;85.40;;;;;;5024819;28;21000;-69
2022/11/16 03:54:56;;;;;;;24.50;17.97;;;11.20;85.40;;;;;;5023848;28;21284;-69
2022/11/16 03:57:25;;;;;;;23.27;17.00;;;11.20;85.50;;;;;;5023416;28;21010;-69
2022/11/16 03:59:57;;;;;;;25.10;17.60;;;11.20;85.60;;;;;;5020014;28;20487;-72
2022/11/16 04:02:25;;;;;;;27.70;17.87;;;11.20;85.70;;;;;;5022210;28;20467;-71
2022/11/16 04:24:34;;;;;;;27.70;19.00;;;11.20;85.70;;;;;;5037347;28;20576;-71
2022/11/16 04:29:53;;;;;;;24.00;16.80;;;11.20;85.90;;;;;;5020554;28;20467;-68
2022/11/16 04:37:56;;;;;;;25.77;16.67;;;11.30;86.00;;;;;;5039506;28;21307;-69
2022/11/16 04:40:31;;;;;;;28.37;18.70;;;11.30;86.00;;;;;;5026467;28;20460;-71
2022/11/16 04:43:02;;;;;;;26.73;17.70;;;11.30;86.10;;;;;;5024056;28;20468;-69
2022/11/16 04:48:33;;;;;;;24.17;17.07;;;11.30;86.20;;;;;;4989667;28;20477;-70
2022/11/16 04:51:02;;;;;;;22.17;16.77;;;11.30;86.20;;;;;;5022758;28;20972;-71
2022/11/16 04:53:32;;;;;;;24.63;16.40;;;11.30;86.20;;;;;;5040842;28;20453;-68
2022/11/16 04:56:10;;;;;;;23.30;17.17;;;11.40;86.30;;;;;;5024342;28;20456;-69
2022/11/16 04:58:38;;;;;;;23.73;17.73;;;11.40;86.20;;;;;;5022694;28;20471;-69
2022/11/16 05:01:06;;;;;;;23.33;16.60;;;11.40;86.20;;;;;;5019782;28;20479;-69
2022/11/16 05:03:34;;;;;;;24.30;17.50;;;11.40;86.30;;;;;;5029638;28;21165;-70
2022/11/16 05:06:02;;;;;;;22.27;16.40;;;11.40;86.30;;;;;;5025881;28;20829;-69
2022/11/16 05:08:31;;;;;;;26.80;17.00;;;11.40;86.20;;;;;;5029872;28;20474;-70
2022/11/16 05:11:01;;;;;;;20.57;15.33;;;11.40;86.20;;;;;;5030734;28;20550;-72
2022/11/16 05:13:29;;;;;;;23.03;16.40;;;11.40;86.30;;;;;;5035721;28;20940;-71
2022/11/16 05:15:57;;;;;;;22.53;15.87;;;11.40;86.30;;;;;;5026356;28;20514;-71
2022/11/16 05:18:26;;;;;;;21.20;15.20;;;11.40;86.30;;;;;;5025478;28;20598;-71
2022/11/16 05:20:59;;;;;;;22.87;15.33;;;11.50;86.30;;;;;;5028559;28;20457;-71
2022/11/16 05:26:21;;;;;;;23.40;15.70;;;11.50;86.40;;;;;;5025018;28;20980;-71
2022/11/16 05:28:50;;;;;;;23.20;15.97;;;11.50;86.30;;;;;;5029712;28;20504;-70
2022/11/16 05:31:18;;;;;;;23.10;15.30;;;11.50;86.30;;;;;;5023105;28;20543;-71
2022/11/16 05:33:47;;;;;;;19.70;14.23;;;11.50;86.20;;;;;;5021773;28;20457;-69
2022/11/16 05:36:16;;;;;;;18.30;13.70;;;11.50;86.30;;;;;;5017379;28;20962;-68
2022/11/16 05:38:44;;;;;;;21.67;14.93;;;11.50;86.20;;;;;;5031691;28;20573;-68
2022/11/16 05:41:12;;;;;;;20.87;15.57;;;11.50;86.20;;;;;;5030757;28;20871;-70
2022/11/16 05:43:41;;;;;;;23.87;16.03;;;11.50;86.20;;;;;;5025654;28;20476;-69
2022/11/16 05:46:17;;;;;;;21.33;14.73;;;11.50;86.20;;;;;;5024196;28;20463;-71
2022/11/16 05:48:45;;;;;;;21.13;14.40;;;11.50;86.20;;;;;;5027180;28;20492;-72
2022/11/16 05:51:13;;;;;;;20.80;15.17;;;11.60;86.20;;;;;;5029908;28;20459;-70
2022/11/16 05:53:42;;;;;;;22.73;15.53;;;11.60;86.20;;;;;;5025684;28;20448;-72
2022/11/16 05:56:14;;;;;;;22.30;15.80;;;11.60;86.20;;;;;;5025809;28;20525;-69
2022/11/16 05:58:46;;;;;;;23.90;16.13;;;11.60;86.10;;;;;;5039485;28;20476;-72
2022/11/16 06:01:14;;;;;;;20.77;14.40;;;11.60;86.10;;;;;;5024827;28;20509;-71
2022/11/16 06:03:42;;;;;;;23.23;15.93;;;11.60;86.10;;;;;;5024112;28;20467;-71
2022/11/16 06:06:11;;;;;;;21.40;13.53;;;11.60;86.10;;;;;;5032388;28;20486;-71
2022/11/16 06:08:39;;;;;;;20.13;14.63;;;11.60;86.10;;;;;;5031590;28;20561;-71
2022/11/16 06:11:11;;;;;;;22.23;15.57;;;11.60;86.10;;;;;;5024366;28;20472;-69
2022/11/16 06:13:39;;;;;;;22.27;16.20;;;11.60;86.10;;;;;;5021076;28;20468;-69
2022/11/16 06:16:09;;;;;;;25.00;15.67;;;11.60;86.10;;;;;;5025538;28;20479;-70
2022/11/16 06:18:38;;;;;;;24.80;16.40;;;11.50;86.10;;;;;;5027821;28;20485;-70
2022/11/16 06:21:08;;;;;;;21.60;15.30;;;11.50;86.10;;;;;;5026720;28;20542;-71
2022/11/16 06:23:36;;;;;;;24.03;16.13;;;11.50;86.20;;;;;;5023868;28;20464;-71
2022/11/16 06:26:05;;;;;;;28.33;17.07;;;11.50;86.10;;;;;;5022020;28;20453;-70
2022/11/16 06:28:34;;;;;;;22.70;15.87;;;11.50;86.10;;;;;;5024410;28;20977;-72
2022/11/16 06:31:04;;;;;;;25.37;15.40;;;11.50;86.10;;;;;;5024700;28;20457;-70
2022/11/16 06:33:38;;;;;;;19.90;13.40;;;11.50;86.10;;;;;;5025454;28;21008;-70
2022/11/16 06:36:13;;;;;;;22.07;16.13;;;11.50;86.20;;;;;;5023295;28;20508;-69
2022/11/16 06:38:41;;;;;;;21.87;16.37;;;11.50;86.20;;;;;;5024124;28;20582;-70
2022/11/16 06:41:09;;;;;;;20.33;14.47;;;11.50;86.20;;;;;;5028268;28;20558;-71
2022/11/16 06:43:43;;;;;;;27.43;16.00;;;11.50;86.20;;;;;;5038265;28;20570;-70
2022/11/16 06:46:12;;;;;;;19.60;14.40;;;11.50;86.30;;;;;;5024948;28;20468;-71
2022/11/16 06:48:41;;;;;;;21.40;14.90;;;11.50;86.20;;;;;;5022224;28;20484;-71
2022/11/16 06:51:12;;;;;;;20.03;14.80;;;11.50;86.20;;;;;;5021103;28;20495;-70
2022/11/16 06:53:40;;;;;;;21.93;14.53;;;11.50;86.20;;;;;;5030591;28;20899;-69
2022/11/16 06:56:12;;;;;;;18.07;13.67;;;11.50;86.20;;;;;;5034210;28;20543;-70
2022/11/16 06:58:44;;;;;;;19.10;13.87;;;11.50;86.20;;;;;;5009407;28;20621;-69
2022/11/16 07:01:14;;;;;;;20.13;13.10;;;11.50;86.20;;;;;;5018903;28;20527;-70
2022/11/16 07:03:45;;;;;;;21.43;14.13;;;11.50;86.20;;;;;;5020354;28;20459;-70
2022/11/16 07:06:14;;;;;;;22.43;15.20;;;11.50;86.30;;;;;;5024458;28;20506;-69
2022/11/16 07:08:45;;;;;;;19.30;15.17;;;11.50;86.20;;;;;;5019287;28;20549;-70
2022/11/16 07:11:16;;;;;;;22.90;15.57;;;11.40;86.30;;;;;;5037088;28;20507;-70
2022/11/16 07:13:44;;;;;;;19.60;15.07;;;11.50;86.30;;;;;;5028935;28;20567;-70
2022/11/16 07:16:13;;;;;;;19.43;14.07;;;11.40;86.30;;;;;;5022229;28;20464;-69
2022/11/16 07:18:49;;;;;;;24.63;15.70;;;11.40;86.40;;;;;;5018847;28;20499;-69
2022/11/16 07:21:18;;;;;;;22.50;16.10;;;11.40;86.40;;;;;;5032465;28;20674;-69
2022/11/16 07:23:48;;;;;;;20.07;14.90;;;11.40;86.40;;;;;;5025325;28;20452;-69
2022/11/16 07:26:19;;;;;;;24.47;16.53;;;11.40;86.40;;;;;;5022673;28;20990;-69
2022/11/16 07:28:53;;;;;;;28.23;16.47;;;11.40;86.40;;;;;;5023318;28;20472;-69
2022/11/16 07:31:22;;;;;;;20.87;15.23;;;11.40;86.50;;;;;;5015926;28;20460;-70
2022/11/16 07:34:11;;;;;;;22.90;15.70;;;11.40;86.50;;;;;;5025844;28;20492;-71
2022/11/16 07:36:46;;;;;;;20.70;13.70;;;11.50;86.50;;;;;;5022812;28;20498;-69
2022/11/16 07:39:14;;;;;;;21.80;15.90;;;11.50;86.50;;;;;;5016433;28;20500;-70
2022/11/16 07:41:44;;;;;;;22.70;15.23;;;11.50;86.50;;;;;;5021301;28;20452;-69
2022/11/16 07:44:22;;;;;;;19.50;14.00;;;11.50;86.60;;;;;;5024044;28;20835;-71
2022/11/16 07:47:03;;;;;;;20.00;15.00;;;11.50;86.50;;;;;;5022956;28;20491;-71
2022/11/16 07:49:33;;;;;;;21.30;15.00;;;11.50;86.50;;;;;;5020157;28;21010;-70
2022/11/16 07:52:08;;;;;;;24.67;14.17;;;11.50;86.50;;;;;;5026905;28;20546;-70
2022/11/16 07:54:57;;;;;;;29.07;18.83;;;11.50;86.50;;;;;;5017895;28;20810;-70
2022/11/16 07:57:27;;;;;;;27.00;17.50;;;11.50;86.60;;;;;;5022113;28;20480;-69
2022/11/16 07:59:58;;;;;;;19.83;13.83;;;11.50;86.60;;;;;;5026139;28;20475;-69
2022/11/16 08:02:28;;;;;;;21.80;14.37;;;11.50;86.70;;;;;;5025559;28;20464;-69
2022/11/16 08:04:57;;;;;;;18.67;13.73;;;11.60;86.70;;;;;;5024466;28;20448;-69
2022/11/16 08:07:27;;;;;;;20.13;13.57;;;11.60;86.80;;;;;;5021574;28;20479;-69
2022/11/16 08:09:56;;;;;;;15.50;10.23;;;11.60;86.90;;;;;;5018858;28;20488;-69
2022/11/16 08:12:24;;;;;;;17.70;10.13;;;11.60;86.80;;;;;;5027897;28;20918;-71
2022/11/16 08:14:53;;;;;;;11.43;9.03;;;11.60;86.90;;;;;;5017852;28;20526;-69
2022/11/16 08:17:21;;;;;;;15.20;8.97;;;11.70;87.10;;;;;;5026022;28;20486;-69
2022/11/16 08:19:49;;;;;;;13.30;8.93;;;11.70;87.10;;;;;;5025783;28;20984;-70
2022/11/16 08:22:19;;;;;;;15.17;9.83;;;11.70;87.10;;;;;;5024885;28;20456;-71
2022/11/16 08:24:48;;;;;;;14.73;8.70;;;11.80;87.10;;;;;;5025592;28;20459;-70
2022/11/16 08:27:17;;;;;;;10.90;7.10;;;11.80;87.20;;;;;;5024543;28;21184;-70
2022/11/16 08:29:50;;;;;;;14.23;7.87;;;11.80;87.20;;;;;;5020525;28;20487;-70
2022/11/16 08:32:18;;;;;;;11.83;8.20;;;11.90;87.10;;;;;;5021004;28;20463;-70
2022/11/16 08:34:45;;;;;;;10.70;6.90;;;11.90;87.20;;;;;;5024593;28;20479;-71
2022/11/16 08:37:13;;;;;;;12.63;7.40;;;11.90;87.20;;;;;;5029833;28;20482;-69
2022/11/16 08:39:45;;;;;;;11.40;7.57;;;11.90;87.30;;;;;;5021789;28;20546;-69
2022/11/16 08:42:13;;;;;;;12.63;8.03;;;11.90;87.30;;;;;;5016466;28;20464;-70
2022/11/16 08:44:45;;;;;;;10.57;6.90;;;11.90;87.30;;;;;;5020818;28;20494;-69
2022/11/16 08:47:15;;;;;;;10.37;7.07;;;12.00;87.30;;;;;;5020539;28;21169;-70
2022/11/16 08:49:55;;;;;;;13.20;8.47;;;12.00;87.40;;;;;;5037066;28;20482;-69
2022/11/16 08:52:26;;;;;;;11.43;7.63;;;12.00;87.40;;;;;;5026352;28;20547;-69
2022/11/16 08:54:56;;;;;;;13.13;7.20;;;12.00;87.40;;;;;;5018960;28;20467;-69
2022/11/16 08:57:24;;;;;;;10.47;6.90;;;12.00;87.40;;;;;;5025079;28;20487;-70
2022/11/16 08:59:57;;;;;;;10.17;6.03;;;12.00;87.40;;;;;;5024619;28;20507;-69
2022/11/16 09:02:25;;;;;;;9.87;5.70;;;12.00;87.50;;;;;;5027399;28;20456;-70
2022/11/16 09:04:53;;;;;;;9.23;5.33;;;12.00;87.60;;;;;;5028366;28;20452;-70
2022/11/16 09:07:21;;;;;;;8.10;5.13;;;12.00;87.70;;;;;;5032154;28;20980;-69
2022/11/16 09:09:49;;;;;;;8.30;4.87;;;12.10;87.70;;;;;;5022572;28;20459;-69
2022/11/16 09:12:19;;;;;;;8.27;4.70;;;12.20;87.70;;;;;;5024011;28;20460;-69
2022/11/16 09:14:47;;;;;;;12.27;5.07;;;12.20;87.60;;;;;;5028126;28;20649;-71
2022/11/16 09:17:15;;;;;;;7.17;4.53;;;12.20;87.60;;;;;;5030737;28;20471;-71
2022/11/16 09:19:49;;;;;;;7.60;4.90;;;12.20;87.60;;;;;;5016615;28;21299;-71
2022/11/16 09:22:17;;;;;;;6.67;3.80;;;12.30;87.70;;;;;;5026596;28;20468;-71
2022/11/16 09:24:46;;;;;;;6.20;3.87;;;12.30;87.60;;;;;;5026424;28;21024;-69
2022/11/16 09:27:15;;;;;;;7.40;3.40;;;12.30;87.70;;;;;;5022546;28;20484;-69
2022/11/16 09:29:44;;;;;;;6.03;3.63;;;12.30;87.70;;;;;;5021893;28;20529;-68
2022/11/16 09:32:12;;;;;;;10.43;4.03;;;12.40;87.70;;;;;;5026152;28;20477;-69
2022/11/16 09:34:40;;;;;;;6.60;3.50;;;12.40;87.70;;;;;;5028071;28;20467;-69
2022/11/16 09:37:08;;;;;;;9.20;4.13;;;12.40;87.70;;;;;;5026928;28;20461;-70
2022/11/16 09:39:36;;;;;;;6.90;3.70;;;12.40;87.70;;;;;;5026106;28;20466;-70
2022/11/16 09:42:19;;;;;;;6.67;3.30;;;12.40;87.70;;;;;;5025096;28;20496;-70
2022/11/16 09:44:58;;;;;;;6.10;3.23;;;12.50;87.80;;;;;;5026043;28;20456;-69
2022/11/16 09:47:35;;;;;;;5.90;3.13;;;12.50;87.70;;;;;;5025823;28;20483;-69
2022/11/16 09:50:07;;;;;;;6.13;3.07;;;12.50;87.60;;;;;;5026815;28;21026;-70
2022/11/16 09:52:40;;;;;;;6.63;3.20;;;12.60;87.60;;;;;;5026690;28;20466;-69
2022/11/16 09:55:21;;;;;;;6.87;3.03;;;12.60;87.60;;;;;;5023468;28;20455;-69
2022/11/16 09:57:52;;;;;;;6.00;2.93;;;12.60;87.60;;;;;;5026114;28;20546;-70
2022/11/16 10:00:22;;;;;;;7.10;2.63;;;12.60;87.70;;;;;;5028942;28;20461;-71
2022/11/16 10:03:01;;;;;;;7.30;3.03;;;12.60;87.60;;;;;;5031814;28;20475;-70
2022/11/16 10:05:36;;;;;;;5.90;2.70;;;12.60;87.60;;;;;;5024546;28;20462;-70
2022/11/16 10:08:10;;;;;;;7.13;2.30;;;12.60;87.60;;;;;;5022359;28;20495;-68
2022/11/16 10:10:44;;;;;;;5.23;2.83;;;12.60;87.70;;;;;;5027594;28;20461;-68
2022/11/16 10:13:22;;;;;;;5.93;2.53;;;12.70;87.70;;;;;;5026101;28;20463;-68
2022/11/16 10:16:01;;;;;;;5.40;2.70;;;12.70;87.80;;;;;;5020404;28;20456;-68
2022/11/16 10:18:45;;;;;;;4.23;2.30;;;12.70;87.70;;;;;;5036238;28;20487;-69
2022/11/16 10:21:36;;;;;;;6.53;2.50;;;12.70;87.80;;;;;;5021587;28;21246;-68
2022/11/16 10:24:25;;;;;;;5.30;2.30;;;12.80;87.80;;;;;;5024844;28;20468;-69
2022/11/16 10:27:05;;;;;;;5.87;2.60;;;12.80;87.80;;;;;;5012988;28;20451;-70
2022/11/16 10:29:55;;;;;;;6.23;2.80;;;12.80;87.70;;;;;;4990006;28;20463;-69
2022/11/16 10:32:28;;;;;;;4.57;2.47;;;12.90;87.60;;;;;;5019884;28;20465;-69
2022/11/16 10:35:01;;;;;;;7.70;2.60;;;12.90;87.50;;;;;;5019664;28;20476;-70
2022/11/16 10:37:32;;;;;;;5.23;2.90;;;12.90;87.50;;;;;;5021900;28;20479;-69
2022/11/16 10:40:15;;;;;;;6.93;3.00;;;12.90;87.40;;;;;;5022547;28;20488;-69
2022/11/16 10:42:46;;;;;;;5.20;2.90;;;12.90;87.50;;;;;;5025970;28;20491;-69
2022/11/16 10:45:19;;;;;;;6.30;2.67;;;12.90;87.40;;;;;;5024377;28;20467;-70
2022/11/16 10:47:56;;;;;;;7.07;3.10;;;12.90;87.40;;;;;;5020692;28;20894;-69
2022/11/16 10:50:34;;;;;;;4.63;2.37;;;12.90;87.20;;;;;;5016000;28;20494;-70
2022/11/16 10:53:02;;;;;;;5.17;2.27;;;12.90;87.00;;;;;;5022320;28;21626;-69
2022/11/16 10:55:30;;;;;;;5.60;2.37;;;12.90;86.80;;;;;;5023934;28;20468;-70
2022/11/16 10:58:00;;;;;;;9.37;2.70;;;12.90;87.00;;;;;;5017466;28;20488;-69
2022/11/16 11:00:43;;;;;;;5.43;2.33;;;12.80;87.10;;;;;;5010620;28;20464;-69
2022/11/16 11:03:14;;;;;;;5.37;2.67;;;12.90;87.10;;;;;;5022654;28;20471;-69
2022/11/16 11:05:51;;;;;;;6.90;2.10;;;12.80;87.00;;;;;;5024248;28;20472;-70
2022/11/16 11:08:29;;;;;;;5.10;2.10;;;12.90;86.90;;;;;;5021639;28;20487;-70
2022/11/16 11:11:00;;;;;;;7.10;2.23;;;12.90;86.90;;;;;;5023841;28;20476;-68
2022/11/16 11:13:29;;;;;;;5.90;1.50;;;12.90;86.80;;;;;;5022459;28;20545;-70
2022/11/16 11:16:16;;;;;;;6.87;1.90;;;12.90;86.70;;;;;;5023717;28;20471;-69
2022/11/16 11:18:45;;;;;;;5.50;2.03;;;12.90;86.70;;;;;;5016708;28;20497;-69
2022/11/16 11:21:18;;;;;;;7.87;2.27;;;12.90;86.70;;;;;;5025738;28;20475;-69
2022/11/16 11:23:49;;;;;;;3.97;1.43;;;13.00;86.80;;;;;;5021030;28;20470;-69
2022/11/16 11:26:32;;;;;;;14.33;2.07;;;13.00;86.70;;;;;;5017758;28;20473;-69
2022/11/16 11:29:16;;;;;;;5.60;1.93;;;13.10;86.80;;;;;;5014351;28;20487;-69
2022/11/16 11:31:47;;;;;;;10.00;1.50;;;13.20;86.50;;;;;;5021755;28;20461;-69
2022/11/16 11:34:20;;;;;;;7.27;1.90;;;13.30;85.90;;;;;;5023247;28;20483;-70
2022/11/16 11:36:52;;;;;;;6.00;1.60;;;13.40;85.50;;;;;;5025028;28;20474;-71
2022/11/16 11:39:29;;;;;;;8.50;2.07;;;13.50;85.10;;;;;;5017586;28;20448;-70
2022/11/16 11:42:18;;;;;;;4.83;1.63;;;13.50;84.90;;;;;;5022226;28;20485;-70
2022/11/16 11:44:56;;;;;;;5.80;1.60;;;13.50;84.50;;;;;;5023343;28;20454;-69
2022/11/16 11:47:44;;;;;;;7.47;2.07;;;13.50;84.30;;;;;;5020653;28;20469;-69
2022/11/16 11:50:40;;;;;;;8.10;1.67;;;13.50;84.00;;;;;;5020365;28;20545;-69
2022/11/16 11:53:16;;;;;;;7.40;1.63;;;13.50;83.70;;;;;;5026223;28;20793;-69
2022/11/16 11:55:44;;;;;;;6.10;1.47;;;13.50;83.60;;;;;;5015024;28;20471;-70
2022/11/16 11:58:18;;;;;;;7.57;2.10;;;13.50;83.50;;;;;;5018402;28;20558;-69
2022/11/16 12:00:55;;;;;;;7.47;1.80;;;13.50;83.40;;;;;;5024890;28;21240;-69
2022/11/16 12:03:54;;;;;;;9.03;1.67;;;13.40;83.40;;;;;;5023045;28;20487;-68
2022/11/16 12:06:30;;;;;;;6.63;1.77;;;13.50;83.20;;;;;;5023582;28;20471;-70
2022/11/16 12:09:19;;;;;;;8.60;1.83;;;13.40;83.20;;;;;;5021645;28;20494;-70
2022/11/16 12:12:00;;;;;;;5.40;1.40;;;13.50;83.00;;;;;;5018721;28;20537;-71
2022/11/16 12:14:48;;;;;;;8.90;2.17;;;13.40;82.90;;;;;;5024619;28;20459;-71
2022/11/16 12:17:22;;;;;;;5.77;1.80;;;13.40;82.60;;;;;;5025756;28;20477;-69
2022/11/16 12:20:15;;;;;;;7.10;1.90;;;13.40;82.40;;;;;;5022176;28;20455;-71
2022/11/16 12:23:02;;;;;;;7.00;1.87;;;13.40;82.20;;;;;;5024897;28;20486;-69
2022/11/16 12:25:38;;;;;;;11.00;2.10;;;13.30;82.20;;;;;;5022637;28;20994;-68
2022/11/16 12:28:22;;;;;;;5.40;1.90;;;13.30;82.30;;;;;;5023536;28;20480;-69
2022/11/16 12:31:04;;;;;;;11.33;2.43;;;13.30;82.20;;;;;;5024089;28;20817;-71
2022/11/16 12:33:41;;;;;;;6.97;1.53;;;13.30;82.10;;;;;;5028071;28;20459;-68
2022/11/16 12:36:21;;;;;;;8.07;2.33;;;13.40;81.90;;;;;;5014083;28;20458;-69
2022/11/16 12:38:58;;;;;;;7.40;2.20;;;13.40;81.90;;;;;;5018794;28;20549;-71
2022/11/16 12:41:52;;;;;;;9.67;2.27;;;13.40;81.80;;;;;;5025609;28;20485;-69
2022/11/16 12:44:29;;;;;;;4.43;1.50;;;13.50;81.60;;;;;;5016821;28;20453;-71
2022/11/16 12:47:07;;;;;;;5.63;1.67;;;13.50;81.60;;;;;;5022893;28;20457;-71
2022/11/16 12:49:52;;;;;;;6.57;2.17;;;13.50;81.60;;;;;;5024103;28;20443;-69
2022/11/16 12:52:41;;;;;;;8.13;2.57;;;13.50;81.60;;;;;;5023083;28;20448;-70
2022/11/16 12:55:21;;;;;;;6.33;2.00;;;13.50;81.50;;;;;;5021770;28;20865;-71
2022/11/16 12:58:13;;;;;;;8.83;2.20;;;13.50;81.40;;;;;;5017996;28;20492;-68
2022/11/16 13:00:52;;;;;;;6.23;1.70;;;13.50;81.50;;;;;;5022010;28;21304;-69
2022/11/16 13:03:26;;;;;;;8.03;1.73;;;13.50;81.40;;;;;;5019589;28;20521;-69
2022/11/16 13:06:00;;;;;;;9.87;1.80;;;13.50;81.30;;;;;;5021167;28;20455;-69
2022/11/16 13:08:37;;;;;;;5.73;2.00;;;13.50;81.30;;;;;;5024492;28;20522;-70
2022/11/16 13:11:13;;;;;;;7.40;1.93;;;13.50;81.20;;;;;;5018895;28;20464;-71
2022/11/16 13:13:43;;;;;;;9.90;2.10;;;13.50;81.10;;;;;;5025329;28;20455;-69
2022/11/16 13:16:20;;;;;;;9.37;1.77;;;13.60;81.00;;;;;;5023952;28;20539;-70
2022/11/16 13:18:49;;;;;;;7.83;1.60;;;13.60;80.80;;;;;;5021102;28;20487;-68
2022/11/16 13:21:25;;;;;;;7.43;1.97;;;13.60;80.60;;;;;;5022827;28;21011;-69
2022/11/16 13:24:06;;;;;;;5.50;1.63;;;13.60;80.70;;;;;;5022649;28;20546;-69
2022/11/16 13:26:42;;;;;;;11.07;2.20;;;13.50;80.40;;;;;;5023155;28;20530;-71
2022/11/16 13:29:19;;;;;;;5.33;2.10;;;13.50;80.30;;;;;;5025169;28;20482;-71
2022/11/16 13:31:53;;;;;;;6.30;1.90;;;13.50;80.30;;;;;;5025797;28;20517;-70
2022/11/16 13:34:24;;;;;;;8.53;2.00;;;13.50;80.40;;;;;;5027987;28;20459;-69
2022/11/16 13:36:52;;;;;;;5.70;1.80;;;13.40;80.30;;;;;;5028166;28;20874;-68
2022/11/16 13:39:41;;;;;;;10.60;2.93;;;13.50;80.40;;;;;;5025117;28;20558;-69
2022/11/16 13:42:13;;;;;;;7.07;2.13;;;13.50;80.40;;;;;;5025981;28;20501;-70
2022/11/16 13:44:41;;;;;;;7.50;2.20;;;13.50;80.40;;;;;;5026668;28;20792;-71
2022/11/16 13:47:22;;;;;;;8.57;2.40;;;13.50;80.40;;;;;;5028925;28;20475;-70
2022/11/16 13:49:55;;;;;;;5.70;2.07;;;13.60;80.40;;;;;;5025517;28;20544;-71